Time;durP1;ratioP1;P1;durP2;ratioP2;P2;SDS_P1;SDS_P2;PMS_P1;PMS_P2;Temp;Humidity;BMP_temperature;BMP_pressure;BME280_temperature;BME280_humidity;BME280_pressure;Samples;Min_cycle;Max_cycle;Signal;HPM_P1;HPM_P2
2024/01/14 00:01:02;;;;;;;56.80;28.55;;;-1.10;92.00;;;;;;5044366;28;20045;-76
2024/01/14 00:03:30;;;;;;;57.30;29.85;;;-1.30;92.40;;;;;;5042324;28;20029;-77
2024/01/14 00:05:57;;;;;;;51.15;28.60;;;-1.30;92.30;;;;;;5043463;28;20096;-78
2024/01/14 00:08:25;;;;;;;48.83;26.85;;;-1.10;92.80;;;;;;5044834;28;20048;-75
2024/01/14 00:10:52;;;;;;;38.78;22.08;;;-1.10;92.20;;;;;;5046562;28;20045;-75
2024/01/14 00:13:19;;;;;;;37.15;22.50;;;-1.10;91.90;;;;;;5029255;28;20349;-77
2024/01/14 00:15:46;;;;;;;43.72;23.13;;;-1.00;91.30;;;;;;5046856;28;20063;-77
2024/01/14 00:18:14;;;;;;;47.67;25.48;;;-1.10;90.80;;;;;;5047700;28;20037;-77
2024/01/14 00:20:41;;;;;;;38.28;24.27;;;-1.40;91.50;;;;;;5051807;28;20053;-79
2024/01/14 00:23:08;;;;;;;46.50;23.45;;;-1.20;91.60;;;;;;5048607;28;20109;-77
2024/01/14 00:25:36;;;;;;;55.17;29.95;;;-1.60;91.50;;;;;;5033200;28;20033;-78
2024/01/14 00:28:03;;;;;;;52.53;28.95;;;-1.50;92.40;;;;;;5051861;28;20056;-79
2024/01/14 00:30:31;;;;;;;51.08;31.45;;;-1.40;92.20;;;;;;5033082;28;20053;-76
2024/01/14 00:32:59;;;;;;;53.13;30.77;;;-1.70;92.70;;;;;;5048921;28;20099;-79
2024/01/14 00:35:26;;;;;;;55.28;29.52;;;-1.50;92.80;;;;;;5048349;28;20041;-78
2024/01/14 00:37:54;;;;;;;53.78;28.50;;;-1.60;92.30;;;;;;5049518;28;20428;-78
2024/01/14 00:40:21;;;;;;;41.00;24.80;;;-1.60;92.70;;;;;;5048250;28;20453;-80
2024/01/14 00:42:49;;;;;;;37.45;24.88;;;-1.80;92.60;;;;;;5052425;28;20049;-75
2024/01/14 00:45:16;;;;;;;47.30;26.23;;;-1.50;93.10;;;;;;5050702;28;20029;-79
2024/01/14 00:47:43;;;;;;;35.50;21.35;;;-1.30;93.20;;;;;;5050093;28;20045;-80
2024/01/14 00:50:10;;;;;;;35.67;22.55;;;-1.50;92.20;;;;;;5051842;28;20037;-77
2024/01/14 00:52:38;;;;;;;41.65;22.40;;;-1.40;92.00;;;;;;5046128;28;20037;-79
2024/01/14 00:55:22;;;;;;;37.67;20.98;;;-1.40;91.90;;;;;;5032527;28;20488;-80
2024/01/14 00:57:49;;;;;;;37.97;22.00;;;-1.40;92.00;;;;;;5047904;28;20497;-79
2024/01/14 01:00:17;;;;;;;41.65;21.98;;;-1.50;92.10;;;;;;5023501;28;20045;-79
2024/01/14 01:02:44;;;;;;;42.47;22.02;;;-1.90;91.80;;;;;;5049275;28;20103;-79
2024/01/14 01:05:15;;;;;;;39.83;23.02;;;-2.30;93.30;;;;;;5026090;28;20036;-77
2024/01/14 01:07:42;;;;;;;;;;;-2.20;93.30;;;;;;5049114;28;20476;-76
2024/01/14 01:10:09;;;;;;;33.97;21.15;;;-2.10;93.40;;;;;;5050998;28;20011;-80
2024/01/14 01:12:54;;;;;;;40.22;20.17;;;-2.50;93.00;;;;;;5049326;28;20023;-75
2024/01/14 01:15:22;;;;;;;34.47;21.33;;;-2.30;94.00;;;;;;5046915;28;20471;-79
2024/01/14 01:17:49;;;;;;;40.55;21.77;;;-2.30;93.90;;;;;;5051529;28;20041;-80
2024/01/14 01:20:16;;;;;;;34.38;20.10;;;-2.20;93.50;;;;;;5048142;28;20041;-79
2024/01/14 01:22:44;;;;;;;31.55;19.80;;;-2.40;93.90;;;;;;5049778;28;20041;-79
2024/01/14 01:25:13;;;;;;;34.35;20.58;;;-2.40;93.90;;;;;;5044928;28;20116;-82
2024/01/14 01:27:40;;;;;;;33.63;20.17;;;-2.40;93.40;;;;;;5049719;28;20431;-83
2024/01/14 01:30:08;;;;;;;35.80;19.88;;;-2.60;93.90;;;;;;5034421;28;20516;-81
2024/01/14 01:32:35;;;;;;;35.13;20.60;;;-2.40;93.90;;;;;;5051829;28;20033;-82
2024/01/14 01:35:04;;;;;;;34.08;19.77;;;-2.20;93.60;;;;;;5048009;28;20040;-79
2024/01/14 01:37:50;;;;;;;31.88;22.02;;;-2.10;93.50;;;;;;5027846;28;20075;-76
2024/01/14 01:40:36;;;;;;;37.58;23.33;;;-2.10;93.30;;;;;;5047362;28;20044;-80
2024/01/14 01:43:03;;;;;;;33.05;21.58;;;-2.20;92.80;;;;;;5049664;28;20037;-81
2024/01/14 01:45:30;;;;;;;32.85;20.80;;;-2.10;93.20;;;;;;5026049;28;20146;-80
2024/01/14 01:47:59;;;;;;;36.10;21.02;;;-2.20;93.30;;;;;;5034033;28;20041;-81
2024/01/14 01:50:27;;;;;;;34.33;19.95;;;-2.00;93.30;;;;;;5047784;28;20384;-78
2024/01/14 01:52:55;;;;;;;37.38;22.45;;;-1.90;93.00;;;;;;5050942;28;20102;-79
2024/01/14 01:55:23;;;;;;;33.00;20.85;;;-2.20;92.80;;;;;;5045331;28;20075;-81
2024/01/14 01:57:50;;;;;;;37.53;21.40;;;-2.20;93.50;;;;;;5047347;28;20033;-79
2024/01/14 02:00:38;;;;;;;41.72;21.23;;;-2.30;93.60;;;;;;5039804;28;20551;-81
2024/01/14 02:03:07;;;;;;;34.38;21.67;;;-2.40;93.50;;;;;;5042988;28;20427;-82
2024/01/14 02:05:41;;;;;;;42.35;21.80;;;-2.20;93.60;;;;;;5050185;28;20063;-81
2024/01/14 02:08:09;;;;;;;38.65;21.08;;;-2.10;93.20;;;;;;5031180;28;20079;-80
2024/01/14 02:10:37;;;;;;;36.97;22.90;;;-2.10;93.00;;;;;;5048629;28;20041;-78
2024/01/14 02:13:05;;;;;;;39.22;22.88;;;-2.10;93.00;;;;;;5049131;28;20128;-82
2024/01/14 02:15:50;;;;;;;36.85;24.40;;;-2.30;93.20;;;;;;5045158;28;20025;-81
2024/01/14 02:18:17;;;;;;;40.65;22.80;;;-2.30;93.40;;;;;;5049187;28;20036;-78
2024/01/14 02:20:45;;;;;;;38.17;22.55;;;-2.30;93.70;;;;;;5049053;28;20037;-81
2024/01/14 02:23:16;;;;;;;41.45;22.50;;;-2.30;93.60;;;;;;5050166;28;20488;-82
2024/01/14 02:25:43;;;;;;;40.88;23.23;;;-2.20;93.60;;;;;;5046331;28;20087;-84
2024/01/14 02:28:10;;;;;;;40.38;22.30;;;-2.10;93.50;;;;;;5051541;28;20074;-84
2024/01/14 02:30:39;;;;;;;37.55;22.90;;;-2.20;93.20;;;;;;5050870;28;20443;-82
2024/01/14 02:33:07;;;;;;;41.47;24.33;;;-2.20;93.40;;;;;;5051089;28;20119;-80
2024/01/14 02:35:36;;;;;;;41.55;22.85;;;-2.40;93.40;;;;;;5047128;28;20048;-82
2024/01/14 02:38:03;;;;;;;39.67;23.58;;;-2.30;93.80;;;;;;5050831;28;20098;-79
2024/01/14 02:40:31;;;;;;;44.03;25.42;;;-2.10;93.60;;;;;;5032960;28;20489;-80
2024/01/14 02:42:58;;;;;;;42.30;23.05;;;-2.00;93.30;;;;;;5050920;28;20025;-77
2024/01/14 02:45:30;;;;;;;40.83;23.98;;;-2.40;93.70;;;;;;5047082;28;20770;-80
2024/01/14 02:47:58;;;;;;;46.33;24.23;;;-2.10;93.80;;;;;;5045636;28;20372;-79
2024/01/14 02:50:25;;;;;;;40.72;22.90;;;-2.20;93.50;;;;;;5048942;28;20049;-79
2024/01/14 02:52:53;;;;;;;41.22;24.38;;;-2.30;93.50;;;;;;5051509;28;20392;-81
2024/01/14 02:55:20;;;;;;;37.72;23.30;;;-2.50;93.70;;;;;;5033517;28;20111;-79
2024/01/14 02:57:48;;;;;;;42.53;22.63;;;-2.40;93.90;;;;;;5048874;28;20408;-80
2024/01/14 03:00:15;;;;;;;39.08;21.42;;;-2.30;93.70;;;;;;5042896;28;20037;-80
2024/01/14 03:02:43;;;;;;;36.80;21.73;;;-2.20;93.60;;;;;;5044482;28;20107;-80
2024/01/14 03:05:10;;;;;;;45.10;21.60;;;-2.20;93.40;;;;;;5050935;28;20041;-80
2024/01/14 03:07:38;;;;;;;34.42;21.65;;;-2.10;93.40;;;;;;5046805;28;20428;-80
2024/01/14 03:10:06;;;;;;;38.03;20.83;;;-2.40;93.10;;;;;;5050727;28;20049;-80
2024/01/14 03:12:33;;;;;;;34.25;22.17;;;-2.40;93.80;;;;;;5047487;28;20108;-83
2024/01/14 03:15:01;;;;;;;33.78;21.13;;;-2.60;93.50;;;;;;5032181;28;20033;-79
2024/01/14 03:17:28;;;;;;;42.17;22.27;;;-2.50;94.10;;;;;;5043647;28;20037;-79
2024/01/14 03:19:56;;;;;;;41.63;22.85;;;-2.40;93.80;;;;;;5048354;28;20047;-77
2024/01/14 03:22:23;;;;;;;37.42;22.52;;;-2.60;93.60;;;;;;5049120;28;20029;-77
2024/01/14 03:24:51;;;;;;;40.10;23.08;;;-2.70;94.20;;;;;;5046743;28;20792;-80
2024/01/14 03:27:18;;;;;;;38.97;22.45;;;-2.80;94.20;;;;;;5045196;28;20033;-79
2024/01/14 03:29:45;;;;;;;37.92;22.15;;;-2.70;94.30;;;;;;5049582;28;20041;-77
2024/01/14 03:32:12;;;;;;;38.25;21.95;;;-2.60;94.30;;;;;;5048112;28;20108;-80
2024/01/14 03:34:40;;;;;;;35.78;21.98;;;-2.50;94.30;;;;;;5049413;28;20433;-79
2024/01/14 03:37:07;;;;;;;40.50;23.10;;;-2.60;94.10;;;;;;5049393;28;20152;-80
2024/01/14 03:39:35;;;;;;;41.25;24.42;;;-2.80;94.00;;;;;;5050088;28;20037;-78
2024/01/14 03:42:02;;;;;;;36.13;22.52;;;-2.90;94.70;;;;;;5049685;28;20033;-78
2024/01/14 03:44:29;;;;;;;46.95;24.52;;;-2.60;94.80;;;;;;5049094;28;20036;-80
2024/01/14 03:46:57;;;;;;;38.42;22.20;;;-2.70;94.60;;;;;;5049383;28;20044;-78
2024/01/14 03:49:24;;;;;;;39.75;22.27;;;-2.60;94.70;;;;;;5052600;28;20388;-76
2024/01/14 03:51:51;;;;;;;39.78;22.13;;;-2.50;94.50;;;;;;5053390;28;20096;-83
2024/01/14 03:54:19;;;;;;;35.92;20.45;;;-2.50;94.50;;;;;;5052628;28;20603;-78
2024/01/14 03:56:46;;;;;;;31.25;20.40;;;-2.70;94.10;;;;;;5020089;28;20041;-77
2024/01/14 03:59:13;;;;;;;28.70;18.50;;;-2.70;94.50;;;;;;5052513;28;20028;-79
2024/01/14 04:01:42;;;;;;;34.33;18.77;;;-2.60;94.50;;;;;;5053599;28;20535;-79
2024/01/14 04:04:10;;;;;;;30.88;20.75;;;-2.60;94.20;;;;;;5034857;28;20135;-78
2024/01/14 04:06:38;;;;;;;32.38;20.02;;;-2.90;94.50;;;;;;5053426;28;20029;-81
2024/01/14 04:09:05;;;;;;;34.65;19.98;;;-2.80;95.00;;;;;;5048209;28;20426;-82
2024/01/14 04:11:33;;;;;;;29.55;18.83;;;-2.90;94.70;;;;;;5053242;28;20083;-78
2024/01/14 04:14:00;;;;;;;34.97;19.73;;;-2.80;94.60;;;;;;5050703;28;20063;-77
2024/01/14 04:16:36;;;;;;;31.88;19.40;;;-2.80;94.50;;;;;;5052293;28;20033;-78
2024/01/14 04:19:04;;;;;;;31.33;20.23;;;-2.90;94.60;;;;;;5050730;28;20037;-77
2024/01/14 04:21:32;;;;;;;39.90;21.67;;;-2.80;94.50;;;;;;5053049;28;20557;-78
2024/01/14 04:24:02;;;;;;;30.92;18.73;;;-2.90;94.40;;;;;;5051773;28;20040;-77
2024/01/14 04:26:30;;;;;;;32.65;20.08;;;-2.90;94.40;;;;;;5052901;28;20043;-79
2024/01/14 04:28:58;;;;;;;33.05;18.40;;;-2.90;94.30;;;;;;5048727;28;20072;-76
2024/01/14 04:31:25;;;;;;;33.88;19.60;;;-2.90;94.30;;;;;;5051166;28;20132;-78
2024/01/14 04:33:52;;;;;;;36.15;19.83;;;-2.80;94.30;;;;;;5052826;28;20032;-78
2024/01/14 04:36:20;;;;;;;37.88;21.65;;;-3.00;93.90;;;;;;5052739;28;20060;-75
2024/01/14 04:38:47;;;;;;;28.65;18.58;;;-3.60;94.30;;;;;;5034229;28;20472;-80
2024/01/14 04:41:15;;;;;;;35.33;20.83;;;-3.50;95.60;;;;;;5052637;28;20443;-77
2024/01/14 04:43:42;;;;;;;35.28;19.75;;;-3.30;95.50;;;;;;5052386;28;20041;-78
2024/01/14 04:46:10;;;;;;;35.28;19.48;;;-3.10;95.20;;;;;;5030049;28;20476;-78
2024/01/14 04:48:38;;;;;;;31.85;18.55;;;-3.00;94.80;;;;;;5045535;28;20044;-77
2024/01/14 04:51:05;;;;;;;31.55;18.35;;;-3.10;94.40;;;;;;5049884;28;20036;-79
2024/01/14 04:53:33;;;;;;;32.63;17.77;;;-3.00;94.60;;;;;;5050857;28;20435;-75
2024/01/14 04:56:00;;;;;;;39.35;20.05;;;-3.10;94.50;;;;;;5049500;28;20037;-81
2024/01/14 04:58:28;;;;;;;30.92;19.85;;;-3.30;94.50;;;;;;5050811;28;20480;-79
2024/01/14 05:00:55;;;;;;;36.80;21.17;;;-3.30;94.70;;;;;;5048597;28;20043;-79
2024/01/14 05:03:22;;;;;;;36.40;19.52;;;-3.20;94.80;;;;;;5046300;28;20120;-79
2024/01/14 05:05:50;;;;;;;31.42;18.30;;;-3.40;94.70;;;;;;5033364;28;20720;-77
2024/01/14 05:08:17;;;;;;;32.95;19.08;;;-3.40;95.00;;;;;;5051934;28;20086;-78
2024/01/14 05:10:45;;;;;;;28.08;17.20;;;-3.40;95.00;;;;;;5050660;28;20132;-77
2024/01/14 05:13:12;;;;;;;35.90;17.42;;;-3.20;95.20;;;;;;5051360;28;20052;-76
2024/01/14 05:15:39;;;;;;;30.05;17.70;;;-3.10;94.80;;;;;;5047464;28;20372;-77
2024/01/14 05:18:06;;;;;;;28.67;15.88;;;-3.00;94.50;;;;;;5030754;28;20468;-78
2024/01/14 05:20:34;;;;;;;29.25;14.70;;;-3.00;94.10;;;;;;5035431;28;20037;-80
2024/01/14 05:23:04;;;;;;;24.98;15.13;;;-3.20;93.70;;;;;;5052403;28;20060;-79
2024/01/14 05:25:31;;;;;;;26.98;15.98;;;-3.20;94.40;;;;;;5051589;28;20534;-77
2024/01/14 05:27:58;;;;;;;32.88;17.25;;;-3.50;93.70;;;;;;5034543;28;20043;-79
2024/01/14 05:30:26;;;;;;;25.80;14.02;;;-3.60;94.50;;;;;;5050180;28;20124;-78
2024/01/14 05:32:53;;;;;;;24.10;15.95;;;-3.60;94.70;;;;;;5052335;28;20043;-78
2024/01/14 05:35:21;;;;;;;29.38;16.02;;;-3.50;94.60;;;;;;5051298;28;20029;-77
2024/01/14 05:37:48;;;;;;;27.10;16.23;;;-3.60;94.50;;;;;;5052098;28;20468;-76
2024/01/14 05:40:15;;;;;;;28.50;16.88;;;-3.50;94.40;;;;;;5048039;28;20040;-77
2024/01/14 05:42:43;;;;;;;30.58;15.82;;;-3.60;94.50;;;;;;5049428;28;20124;-75
2024/01/14 05:45:10;;;;;;;30.60;16.67;;;-3.60;94.40;;;;;;5049719;28;20033;-79
2024/01/14 05:47:38;;;;;;;24.88;14.90;;;-3.50;94.40;;;;;;5048411;28;20082;-78
2024/01/14 05:50:23;;;;;;;23.92;15.05;;;-3.50;94.20;;;;;;5034900;28;20368;-78
2024/01/14 05:52:50;;;;;;;30.65;15.82;;;-3.30;94.30;;;;;;5045923;28;20033;-76
2024/01/14 05:55:18;;;;;;;20.45;14.02;;;-3.20;93.90;;;;;;5045795;28;20095;-80
2024/01/14 05:57:45;;;;;;;27.45;15.80;;;-3.30;94.10;;;;;;5032301;28;20065;-78
2024/01/14 06:00:13;;;;;;;22.52;15.50;;;-3.30;94.20;;;;;;5050901;28;20037;-75
2024/01/14 06:02:41;;;;;;;22.52;15.55;;;-3.20;94.10;;;;;;5027154;28;20037;-77
2024/01/14 06:05:08;;;;;;;21.45;14.63;;;-3.20;94.10;;;;;;5046889;28;20041;-79
2024/01/14 06:07:36;;;;;;;25.67;15.38;;;-3.30;94.00;;;;;;5049782;28;20029;-80
2024/01/14 06:10:03;;;;;;;28.95;15.80;;;-3.30;94.10;;;;;;5050473;28;20052;-80
2024/01/14 06:12:31;;;;;;;27.60;15.80;;;-3.60;94.40;;;;;;5047536;28;20440;-79
2024/01/14 06:14:58;;;;;;;25.58;15.82;;;-3.50;94.70;;;;;;5049889;28;20431;-79
2024/01/14 06:17:25;;;;;;;27.88;16.35;;;-3.40;94.60;;;;;;5043315;28;20037;-76
2024/01/14 06:19:53;;;;;;;29.13;17.60;;;-3.30;94.40;;;;;;5046868;28;20036;-80
2024/01/14 06:22:20;;;;;;;27.98;16.08;;;-3.20;94.40;;;;;;5032367;28;20064;-77
2024/01/14 06:24:47;;;;;;;27.70;16.48;;;-3.30;94.30;;;;;;5045260;28;20068;-79
2024/01/14 06:27:14;;;;;;;29.38;18.15;;;-3.20;94.40;;;;;;5046515;28;20032;-79
2024/01/14 06:29:42;;;;;;;29.15;17.67;;;-3.10;94.40;;;;;;5045175;28;20032;-79
2024/01/14 06:32:09;;;;;;;31.98;17.83;;;-3.00;94.30;;;;;;5050013;28;20094;-80
2024/01/14 06:34:36;;;;;;;29.17;18.20;;;-3.00;94.10;;;;;;5046930;28;20060;-79
2024/01/14 06:37:04;;;;;;;30.55;18.88;;;-3.20;93.90;;;;;;5050884;28;20031;-79
2024/01/14 06:39:31;;;;;;;30.10;18.77;;;-3.00;94.40;;;;;;5050192;28;20587;-78
2024/01/14 06:41:59;;;;;;;27.20;17.38;;;-2.80;93.90;;;;;;5044566;28;20030;-80
2024/01/14 06:44:26;;;;;;;32.05;18.80;;;-2.90;93.70;;;;;;5049151;28;20122;-80
2024/01/14 06:46:53;;;;;;;27.45;18.48;;;-3.10;93.80;;;;;;5046984;28;20076;-81
2024/01/14 06:49:20;;;;;;;28.00;17.83;;;-3.00;94.20;;;;;;5050519;28;20037;-79
2024/01/14 06:51:48;;;;;;;29.33;17.48;;;-2.80;94.10;;;;;;5050327;28;20037;-81
2024/01/14 06:54:16;;;;;;;28.92;17.00;;;-2.70;93.90;;;;;;5049369;28;20358;-77
2024/01/14 06:56:47;;;;;;;26.48;16.90;;;-2.70;93.80;;;;;;5050884;28;20634;-80
2024/01/14 06:59:21;;;;;;;25.50;17.48;;;-2.70;93.60;;;;;;5031759;28;20036;-79
2024/01/14 07:01:48;;;;;;;31.85;17.80;;;-2.90;93.70;;;;;;5050019;28;20045;-79
2024/01/14 07:04:16;;;;;;;35.83;19.00;;;-3.10;93.90;;;;;;5032064;28;20373;-81
2024/01/14 07:06:44;;;;;;;28.33;17.90;;;-3.40;94.40;;;;;;5050597;28;20065;-80
2024/01/14 07:09:12;;;;;;;29.85;17.80;;;-3.00;94.70;;;;;;5045873;28;20037;-81
2024/01/14 07:11:40;;;;;;;32.08;17.75;;;-2.80;94.40;;;;;;5047024;28;20041;-81
2024/01/14 07:14:07;;;;;;;27.45;17.23;;;-2.60;94.10;;;;;;5032477;28;20033;-79
2024/01/14 07:16:35;;;;;;;26.50;16.38;;;-2.50;93.70;;;;;;5043947;28;20062;-78
2024/01/14 07:19:03;;;;;;;25.50;17.52;;;-2.80;93.50;;;;;;5046010;28;20033;-78
2024/01/14 07:21:31;;;;;;;31.77;18.15;;;-2.70;93.80;;;;;;5043585;28;20116;-78
2024/01/14 07:23:59;;;;;;;29.77;17.98;;;-2.80;93.60;;;;;;5048707;28;20041;-77
2024/01/14 07:26:26;;;;;;;33.75;19.30;;;-2.60;93.80;;;;;;5047592;28;20375;-79
2024/01/14 07:28:54;;;;;;;37.42;17.77;;;-2.30;93.60;;;;;;5048991;28;20159;-78
2024/01/14 07:31:30;;;;;;;31.33;16.67;;;-2.40;93.20;;;;;;5049732;28;20044;-75
2024/01/14 07:33:58;;;;;;;27.88;17.65;;;-2.10;93.00;;;;;;5046769;28;20037;-79
2024/01/14 07:36:26;;;;;;;32.83;19.90;;;-2.10;92.40;;;;;;5049373;28;20028;-79
2024/01/14 07:38:54;;;;;;;30.40;19.17;;;-2.20;92.00;;;;;;5049414;28;20041;-79
2024/01/14 07:41:21;;;;;;;26.80;18.80;;;-2.20;92.30;;;;;;5049140;28;20411;-79
2024/01/14 07:43:49;;;;;;;33.00;20.52;;;-2.10;92.40;;;;;;5047139;28;20109;-74
2024/01/14 07:46:17;;;;;;;35.10;21.17;;;-2.30;92.30;;;;;;5048764;28;20118;-78
2024/01/14 07:48:45;;;;;;;34.47;21.00;;;-2.20;92.70;;;;;;5032064;28;20069;-84
2024/01/14 07:51:12;;;;;;;34.65;19.45;;;-2.00;92.50;;;;;;5047399;28;20044;-78
2024/01/14 07:53:39;;;;;;;42.65;22.67;;;-1.80;92.70;;;;;;5050136;28;20040;-78
2024/01/14 07:56:07;;;;;;;34.40;22.92;;;-1.40;93.90;;;;;;5047014;28;20029;-78
2024/01/14 07:58:35;;;;;;;35.03;22.15;;;-1.50;92.80;;;;;;5049619;28;20039;-76
2024/01/14 08:01:02;;;;;;;38.75;21.05;;;-1.60;92.40;;;;;;5048735;28;20025;-80
2024/01/14 08:03:30;;;;;;;33.25;22.42;;;-1.20;92.20;;;;;;5045685;28;20033;-78
2024/01/14 08:05:59;;;;;;;38.88;22.25;;;-1.00;91.30;;;;;;5045222;28;20128;-79
2024/01/14 08:08:28;;;;;;;36.45;22.65;;;-1.30;91.50;;;;;;5047930;28;20040;-74
2024/01/14 08:10:55;;;;;;;48.40;23.83;;;-1.10;91.30;;;;;;5047125;28;20041;-79
2024/01/14 08:13:23;;;;;;;36.67;23.02;;;-0.80;91.20;;;;;;5049204;28;20035;-78
2024/01/14 08:15:50;;;;;;;35.17;21.05;;;-1.60;91.30;;;;;;5028614;28;20037;-79
2024/01/14 08:18:29;;;;;;;41.10;22.88;;;-1.50;91.90;;;;;;5047346;28;20029;-79
2024/01/14 08:20:58;;;;;;;32.72;20.63;;;-1.30;91.70;;;;;;5047815;28;20045;-79
2024/01/14 08:23:26;;;;;;;41.75;23.73;;;-1.50;91.60;;;;;;5047748;28;20033;-78
2024/01/14 08:25:54;;;;;;;40.30;22.55;;;-1.20;91.70;;;;;;5045914;28;20068;-78
2024/01/14 08:28:21;;;;;;;46.22;23.05;;;-1.00;91.60;;;;;;5031883;28;20078;-75
2024/01/14 08:30:49;;;;;;;35.83;22.40;;;-0.60;91.20;;;;;;5043603;28;20404;-73
2024/01/14 08:33:16;;;;;;;47.55;23.92;;;-0.50;90.90;;;;;;5049407;28;20361;-79
2024/01/14 08:35:45;;;;;;;42.55;24.35;;;-0.30;90.70;;;;;;5049636;28;20087;-78
2024/01/14 08:38:12;;;;;;;44.30;26.15;;;-0.60;90.70;;;;;;5050771;28;20090;-75
2024/01/14 08:40:39;;;;;;;44.35;24.17;;;-0.20;90.90;;;;;;5049237;28;20605;-77
2024/01/14 08:43:06;;;;;;;50.78;25.38;;;0.10;90.40;;;;;;5048547;28;20112;-77
2024/01/14 08:45:34;;;;;;;45.80;25.27;;;0.00;90.20;;;;;;5050751;28;20041;-74
2024/01/14 08:48:01;;;;;;;45.20;26.05;;;0.20;90.10;;;;;;5048399;28;20048;-82
2024/01/14 08:50:29;;;;;;;41.25;24.73;;;0.30;89.90;;;;;;5050667;28;20041;-78
2024/01/14 08:52:56;;;;;;;44.53;25.42;;;0.30;90.00;;;;;;5052307;28;20087;-75
2024/01/14 08:55:23;;;;;;;42.28;25.35;;;0.60;89.20;;;;;;5052436;28;20353;-78
2024/01/14 08:57:51;;;;;;;40.58;24.08;;;0.80;88.20;;;;;;5048321;28;20044;-79
2024/01/14 09:00:18;;;;;;;41.03;24.02;;;0.50;88.80;;;;;;5050957;28;20041;-75
2024/01/14 09:02:46;;;;;;;52.75;24.77;;;0.80;88.50;;;;;;5052457;28;20435;-79
2024/01/14 09:05:14;;;;;;;44.17;24.05;;;0.50;89.00;;;;;;5052192;28;20047;-83
2024/01/14 09:07:41;;;;;;;41.33;25.40;;;0.80;88.70;;;;;;5050755;28;20064;-80
2024/01/14 09:10:09;;;;;;;36.28;22.80;;;0.90;88.60;;;;;;5034633;28;20048;-78
2024/01/14 09:12:37;;;;;;;38.15;24.25;;;0.90;87.60;;;;;;5047975;28;20056;-75
2024/01/14 09:15:05;;;;;;;44.03;25.23;;;0.90;88.00;;;;;;5051388;28;20033;-78
2024/01/14 09:17:32;;;;;;;41.45;25.90;;;1.00;88.00;;;;;;5044684;28;20049;-82
2024/01/14 09:20:00;;;;;;;45.22;24.40;;;1.30;87.50;;;;;;5049862;28;20045;-77
2024/01/14 09:22:28;;;;;;;43.70;25.35;;;1.50;86.40;;;;;;5049072;28;20044;-80
2024/01/14 09:24:55;;;;;;;41.92;25.77;;;1.50;86.00;;;;;;5049062;28;20064;-82
2024/01/14 09:27:23;;;;;;;41.33;24.83;;;1.60;85.90;;;;;;5051507;28;20095;-76
2024/01/14 09:29:50;;;;;;;41.95;26.83;;;1.50;86.10;;;;;;5051868;28;20052;-80
2024/01/14 09:32:18;;;;;;;49.45;25.58;;;1.50;86.20;;;;;;5049199;28;20416;-78
2024/01/14 09:34:45;;;;;;;42.75;27.75;;;0.90;87.60;;;;;;5052670;28;20076;-75
2024/01/14 09:37:12;;;;;;;45.22;26.95;;;1.40;87.90;;;;;;5051661;28;20090;-81
2024/01/14 09:39:39;;;;;;;45.00;25.98;;;1.50;87.00;;;;;;5048152;28;20040;-82
2024/01/14 09:42:32;;;;;;;46.00;27.50;;;1.60;86.80;;;;;;5050576;28;20087;-77
2024/01/14 09:45:00;;;;;;;47.80;28.80;;;1.50;86.70;;;;;;5047321;28;20068;-81
2024/01/14 09:47:32;;;;;;;45.13;28.58;;;1.70;86.00;;;;;;5044766;28;20053;-79
2024/01/14 09:50:00;;;;;;;66.05;34.80;;;2.00;88.80;;;;;;5048605;28;20412;-76
2024/01/14 09:52:30;;;;;;;94.32;47.88;;;3.00;92.60;;;;;;5050430;28;20041;-80
2024/01/14 09:54:57;;;;;;;45.72;29.33;;;3.30;89.70;;;;;;5046534;28;20444;-76
2024/01/14 09:57:27;;;;;;;45.80;28.02;;;3.60;84.90;;;;;;5045182;28;20044;-78
2024/01/14 09:59:56;;;;;;;43.63;27.60;;;3.00;83.40;;;;;;5045462;28;20424;-77
2024/01/14 10:02:26;;;;;;;44.05;25.98;;;3.10;83.10;;;;;;5028609;28;20109;-78
2024/01/14 10:04:54;;;;;;;;;;;3.30;82.50;;;;;;5049222;28;20044;-78
2024/01/14 10:07:22;;;;;;;43.17;23.80;;;3.50;80.80;;;;;;5048532;28;20004;-76
2024/01/14 10:09:50;;;;;;;43.05;24.85;;;3.40;80.90;;;;;;5047041;28;20064;-79
2024/01/14 10:12:18;;;;;;;42.35;27.00;;;3.60;80.40;;;;;;5047280;28;20033;-75
2024/01/14 10:14:57;;;;;;;49.08;27.38;;;3.20;79.90;;;;;;5048869;28;20124;-77
2024/01/14 10:17:25;;;;;;;52.00;29.08;;;3.50;81.70;;;;;;5043107;28;20040;-79
2024/01/14 10:19:54;;;;;;;46.90;27.92;;;3.90;79.20;;;;;;5046132;28;20350;-79
2024/01/14 10:22:21;;;;;;;48.10;28.08;;;4.00;78.70;;;;;;5043972;28;20049;-80
2024/01/14 10:24:51;;;;;;;49.60;28.73;;;4.20;77.80;;;;;;5048060;28;20130;-79
2024/01/14 10:27:23;;;;;;;44.97;28.20;;;4.20;77.40;;;;;;5043086;28;20132;-80
2024/01/14 10:30:08;;;;;;;50.78;28.77;;;4.40;77.40;;;;;;5047566;28;20371;-79
2024/01/14 10:32:36;;;;;;;46.42;28.63;;;4.90;76.60;;;;;;5046075;28;20465;-76
2024/01/14 10:35:27;;;;;;;44.70;26.25;;;5.10;75.00;;;;;;5047669;28;20041;-78
2024/01/14 10:37:56;;;;;;;40.13;25.30;;;4.60;75.80;;;;;;5026213;28;20041;-76
2024/01/14 10:40:25;;;;;;;45.22;25.77;;;5.00;74.80;;;;;;5028511;28;20029;-79
2024/01/14 10:42:52;;;;;;;48.45;29.35;;;5.50;73.90;;;;;;5027185;28;20053;-82
2024/01/14 10:45:20;;;;;;;71.82;39.90;;;5.90;73.20;;;;;;5049717;28;20029;-80
2024/01/14 10:47:52;;;;;;;100.18;51.75;;;6.10;79.70;;;;;;5050509;28;20040;-82
2024/01/14 10:50:22;;;;;;;53.20;32.15;;;6.70;79.00;;;;;;5047617;28;20371;-81
2024/01/14 10:53:00;;;;;;;50.95;30.33;;;5.90;73.20;;;;;;5044945;28;20039;-76
2024/01/14 10:55:34;;;;;;;46.67;28.70;;;6.00;71.30;;;;;;5048809;28;20079;-79
2024/01/14 10:58:04;;;;;;;44.80;26.95;;;6.10;71.50;;;;;;5044830;28;20033;-79
2024/01/14 11:00:35;;;;;;;47.13;27.98;;;6.30;70.90;;;;;;5046609;28;20037;-81
2024/01/14 11:03:08;;;;;;;99.00;54.13;;;6.30;70.30;;;;;;5049337;28;20064;-81
2024/01/14 11:05:36;;;;;;;76.28;44.65;;;6.40;72.70;;;;;;5044361;28;20411;-81
2024/01/14 11:08:04;;;;;;;159.32;79.88;;;6.90;73.20;;;;;;5045912;28;20036;-81
2024/01/14 11:10:32;;;;;;;155.25;86.30;;;7.60;71.90;;;;;;5043973;28;20038;-78
2024/01/14 11:13:00;;;;;;;91.55;53.20;;;9.60;73.00;;;;;;5049858;28;20037;-78
2024/01/14 11:15:39;;;;;;;60.95;39.22;;;10.80;65.90;;;;;;5045465;28;20380;-81
2024/01/14 11:18:30;;;;;;;44.97;27.02;;;10.80;62.40;;;;;;5042552;28;20033;-79
2024/01/14 11:21:23;;;;;;;34.35;23.02;;;10.60;60.50;;;;;;5047820;28;20040;-81
2024/01/14 11:24:11;;;;;;;33.60;20.45;;;10.80;59.60;;;;;;5039287;28;20388;-80
2024/01/14 11:26:38;;;;;;;37.00;22.90;;;10.50;59.80;;;;;;5027603;28;20040;-76
2024/01/14 11:29:06;;;;;;;39.58;24.20;;;10.50;59.10;;;;;;5028332;28;20190;-78
2024/01/14 11:32:12;;;;;;;37.95;23.42;;;10.70;58.50;;;;;;5049955;28;20144;-77
2024/01/14 11:34:52;;;;;;;36.83;23.55;;;10.20;58.70;;;;;;5045338;28;20040;-74
2024/01/14 11:37:42;;;;;;;35.78;22.25;;;8.70;62.20;;;;;;5045907;28;20040;-77
2024/01/14 11:40:16;;;;;;;34.90;24.15;;;9.30;61.80;;;;;;5040841;28;20037;-75
2024/01/14 11:42:50;;;;;;;37.00;25.48;;;8.20;62.70;;;;;;5044015;28;20086;-79
2024/01/14 11:45:24;;;;;;;37.72;23.48;;;7.40;64.40;;;;;;5041513;28;20087;-76
2024/01/14 11:47:53;;;;;;;42.97;28.33;;;7.60;64.50;;;;;;5037564;28;20124;-78
2024/01/14 11:50:28;;;;;;;41.90;27.92;;;8.50;63.10;;;;;;5008803;28;20041;-76
2024/01/14 11:52:58;;;;;;;38.20;27.30;;;8.30;62.60;;;;;;5036708;28;20072;-79
2024/01/14 11:55:31;;;;;;;40.72;25.40;;;9.00;61.90;;;;;;5037602;28;20041;-78
2024/01/14 11:58:13;;;;;;;51.35;31.88;;;8.10;62.60;;;;;;5031392;28;20045;-84
2024/01/14 12:00:42;;;;;;;171.00;95.70;;;7.90;64.50;;;;;;5027522;28;20037;-79
2024/01/14 12:03:14;;;;;;;59.78;37.60;;;8.60;66.50;;;;;;5041748;28;20037;-75
2024/01/14 12:05:42;;;;;;;42.65;27.95;;;8.10;62.80;;;;;;5028978;28;20099;-77
2024/01/14 12:08:11;;;;;;;36.30;23.48;;;7.50;63.80;;;;;;5024008;28;20090;-79
2024/01/14 12:10:40;;;;;;;36.35;23.95;;;7.10;64.00;;;;;;5033834;28;20049;-80
2024/01/14 12:13:07;;;;;;;37.58;24.20;;;7.30;63.80;;;;;;5050013;28;20035;-78
2024/01/14 12:15:36;;;;;;;36.67;22.73;;;6.40;64.60;;;;;;5051585;28;20485;-80
2024/01/14 12:18:07;;;;;;;40.97;23.40;;;6.80;64.90;;;;;;5053200;28;20059;-80
2024/01/14 12:20:36;;;;;;;33.33;21.67;;;7.40;64.40;;;;;;5028721;28;20079;-82
2024/01/14 12:23:06;;;;;;;31.23;20.27;;;8.40;63.00;;;;;;5049889;28;20033;-79
2024/01/14 12:25:35;;;;;;;32.78;21.80;;;9.70;59.80;;;;;;5046296;28;20294;-77
2024/01/14 12:28:03;;;;;;;34.05;20.83;;;9.20;59.50;;;;;;5038860;28;20041;-78
2024/01/14 12:30:34;;;;;;;36.10;20.67;;;7.70;61.60;;;;;;5050241;28;20052;-77
2024/01/14 12:33:07;;;;;;;31.08;20.33;;;7.30;63.50;;;;;;5050334;28;20048;-81
2024/01/14 12:35:36;;;;;;;34.08;21.33;;;7.30;63.40;;;;;;5029149;28;20037;-76
2024/01/14 12:38:08;;;;;;;31.70;21.85;;;7.30;63.80;;;;;;5050188;28;20033;-79
2024/01/14 12:40:37;;;;;;;85.00;44.00;;;6.90;64.70;;;;;;5047960;28;20376;-77